Rina Amoretti — IBRR — position and weather

sailwx.info

Track history (hours):
 
Tides and Currents Weather Stations Pressure Air Temp Water Temp Dewpoint Dewpoint Depression Visibility Wind Speed Wind Dir Waves Ship Positions

Rina Amoretti

Last reported at 2016-Aug-29 06:31 UTC. Time now 2016-Aug-29 07:14 UTC.
Position N 38°06' E 013°26'.

Length 120 m; draft 7.4 m.

Type: Ship (hazmat cat A). MMSI: 247197000.

Date/timePositionNaut miles runAvg speedWind from/ knotsBaromVisibWave heightAir tempDewpointWater temp
2016-Aug-29 06:31N 38°06' E 013°26'0 0.1
2016-Aug-29 05:31N 38°06' E 013°26'1 0.9
2016-Aug-29 04:31N 38°07' E 013°26'0 0.0
2016-Aug-29 03:31N 38°07' E 013°26'0 0.0
2016-Aug-29 02:31N 38°07' E 013°26'0 0.1
2016-Aug-29 01:33N 38°07' E 013°26'1010.4
2016-Aug-29 00:33N 38°10' E 013°39'1212.4
2016-Aug-28 23:33N 38°11' E 013°55'1212.4
2016-Aug-28 22:33N 38°13' E 014°11'1412.4
2016-Aug-28 21:24N 38°14' E 014°29'1113.1
2016-Aug-28 20:33N 38°16' E 014°43'1413.7
2016-Aug-28 19:33N 38°17' E 015°00'1413.8
2016-Aug-28 18:33N 38°18' E 015°18'1313.4
2016-Aug-28 17:33N 38°20' E 015°34'6 6.2
2016-Aug-28 16:34N 38°14' E 015°37'1414.1
2016-Aug-28 15:33N 38°00' E 015°34'1413.5
2016-Aug-28 14:33N 37°47' E 015°29'1313.1
2016-Aug-28 13:32N 37°34' E 015°25'1412.9
2016-Aug-28 12:28N 37°21' E 015°21'9 0.4
2016-Aug-27 11:28N 37°12' E 015°17'1011.0
2016-Aug-27 10:33N 37°22' E 015°21'1413.7
2016-Aug-27 09:33N 37°35' E 015°24'1313.3
2016-Aug-27 08:33N 37°48' E 015°28'1313.1
2016-Aug-27 07:33N 38°01' E 015°33'1313.3
2016-Aug-27 06:33N 38°14' E 015°36'17 8.4
2016-Aug-27 04:33N 38°18' E 015°16'1313.2
2016-Aug-27 03:33N 38°17' E 014°59'1413.8
2016-Aug-27 02:33N 38°15' E 014°42'1413.6
2016-Aug-27 01:33N 38°14' E 014°24'1413.7
2016-Aug-27 00:33N 38°12' E 014°07'1313.3
2016-Aug-26 23:33N 38°11' E 013°50'1313.3
2016-Aug-26 22:33N 38°10' E 013°33'7 6.9
2016-Aug-26 21:33N 38°06' E 013°26'0 0.0
2016-Aug-26 20:33N 38°06' E 013°26'0 0.0
2016-Aug-26 19:33N 38°06' E 013°26'0 0.0
2016-Aug-26 18:33N 38°06' E 013°26'0 0.0
2016-Aug-26 17:33N 38°06' E 013°26'0 0.0
2016-Aug-26 16:33N 38°06' E 013°26'0 0.0
2016-Aug-26 15:33N 38°06' E 013°26'0 0.0
2016-Aug-26 14:33N 38°06' E 013°26'0 0.0
2016-Aug-26 13:33N 38°06' E 013°26'0 0.0
2016-Aug-26 12:33N 38°06' E 013°26'0 0.0
2016-Aug-26 11:33N 38°06' E 013°26'0 0.0
2016-Aug-26 10:33N 38°06' E 013°26'0 0.0
2016-Aug-26 09:33N 38°06' E 013°26'0 0.0
2016-Aug-26 08:33N 38°06' E 013°26'0 0.0
2016-Aug-26 07:33N 38°06' E 013°26'0 0.0
2016-Aug-26 06:33N 38°06' E 013°26'1 0.6
2016-Aug-26 04:31N 38°07' E 013°26'0 0.0
2016-Aug-26 03:31N 38°07' E 013°26'0 0.0
2016-Aug-26 02:31N 38°07' E 013°26'0 0.0
2016-Aug-26 01:31N 38°07' E 013°26'0 0.0
2016-Aug-26 00:31N 38°07' E 013°26'0 0.0
2016-Aug-25 23:31N 38°07' E 013°26'0 0.0
2016-Aug-25 22:28N 38°07' E 013°26'0 0.0
2016-Aug-25 21:31N 38°07' E 013°26'0 0.0
2016-Aug-25 20:31N 38°07' E 013°26'0 0.0
2016-Aug-25 19:31N 38°07' E 013°26'0 0.0
2016-Aug-25 18:31N 38°07' E 013°26'0 0.0
2016-Aug-25 17:31N 38°07' E 013°26'0 0.0
2016-Aug-25 16:31N 38°07' E 013°26'0 0.0
2016-Aug-25 15:31N 38°07' E 013°26'0 0.0
2016-Aug-25 14:31N 38°07' E 013°26'0 0.0
2016-Aug-25 13:31N 38°07' E 013°26'0 0.0
2016-Aug-25 12:31N 38°07' E 013°26'0 0.0
2016-Aug-25 11:31N 38°07' E 013°26'0 0.0
2016-Aug-25 10:31N 38°07' E 013°26'0 0.0
2016-Aug-25 09:31N 38°07' E 013°26'0 0.0
2016-Aug-25 08:31N 38°07' E 013°26'0 0.0
2016-Aug-25 07:31N 38°07' E 013°26'0 0.0
2016-Aug-25 06:31N 38°07' E 013°26'0 0.0
2016-Aug-25 04:31N 38°07' E 013°26'0 0.0
2016-Aug-25 03:34N 38°07' E 013°26'0 0.0
2016-Aug-25 02:34N 38°07' E 013°26'0 0.0
2016-Aug-25 01:33N 38°07' E 013°26'0 0.0
2016-Aug-25 00:33N 38°07' E 013°26'0 0.0
2016-Aug-24 23:33N 38°07' E 013°26'0 0.0
2016-Aug-24 22:33N 38°07' E 013°26'0 0.0
2016-Aug-24 21:33N 38°07' E 013°26'0 0.0
2016-Aug-24 20:33N 38°07' E 013°26'0 0.0
2016-Aug-24 19:33N 38°07' E 013°26'0 0.0
2016-Aug-24 18:33N 38°07' E 013°26'0 0.0
2016-Aug-24 17:33N 38°07' E 013°26'0 0.0
2016-Aug-24 16:33N 38°07' E 013°26'0 0.0
2016-Aug-24 15:33N 38°07' E 013°26'0 0.0
2016-Aug-24 14:33N 38°07' E 013°26'0 0.0
2016-Aug-24 13:27N 38°07' E 013°26'0 0.0
2016-Aug-24 12:33N 38°07' E 013°26'0 0.0
2016-Aug-24 11:33N 38°07' E 013°26'0 0.0
2016-Aug-24 10:33N 38°07' E 013°26'0 0.0
2016-Aug-24 09:33N 38°07' E 013°26'0 0.0
2016-Aug-24 08:33N 38°07' E 013°26'0 0.0
2016-Aug-24 07:33N 38°07' E 013°26'0 0.0
2016-Aug-24 06:33N 38°07' E 013°26'0 0.0
2016-Aug-24 04:33N 38°07' E 013°26'0 0.0
2016-Aug-24 03:33N 38°07' E 013°26'0 0.0
2016-Aug-24 02:33N 38°07' E 013°26'0 0.0
2016-Aug-24 01:33N 38°07' E 013°26'0 0.0
2016-Aug-24 00:33N 38°07' E 013°26'0 0.0
2016-Aug-23 23:33N 38°07' E 013°26'0 0.0
2016-Aug-23 22:33N 38°07' E 013°26'0 0.0
2016-Aug-23 21:33N 38°07' E 013°26'0 0.0
2016-Aug-23 20:33N 38°07' E 013°26'0 0.0
2016-Aug-23 19:33N 38°07' E 013°26'0 0.0
2016-Aug-23 18:33N 38°07' E 013°26'0 0.0
2016-Aug-23 17:33N 38°07' E 013°26'0 0.0
2016-Aug-23 16:33N 38°07' E 013°26'0 0.0
2016-Aug-23 15:33N 38°07' E 013°26'0 0.0
2016-Aug-23 14:30N 38°07' E 013°26'0 0.0
2016-Aug-23 13:33N 38°07' E 013°26'0 0.0
2016-Aug-23 12:33N 38°07' E 013°26'0 0.0
2016-Aug-23 11:33N 38°07' E 013°26'0 0.0
2016-Aug-23 10:32N 38°07' E 013°26'0 0.0
2016-Aug-23 09:32N 38°07' E 013°26'0 0.0
2016-Aug-23 08:32N 38°07' E 013°26'0 0.0
2016-Aug-23 07:32N 38°07' E 013°26'0 0.1
2016-Aug-23 06:29N 38°07' E 013°26'1 0.6
2016-Aug-23 05:34N 38°07' E 013°27'1010.1
2016-Aug-23 04:33N 38°10' E 013°39'1212.2
2016-Aug-23 03:33N 38°11' E 013°55'1212.4
2016-Aug-23 02:33N 38°13' E 014°11'1412.9
2016-Aug-23 01:30N 38°14' E 014°28'1313.2
2016-Aug-23 00:33N 38°15' E 014°44'1414.3
2016-Aug-22 23:33N 38°17' E 015°02'1413.8
2016-Aug-22 22:33N 38°19' E 015°19'1313.0
2016-Aug-22 21:34N 38°20' E 015°36'8 7.6
2016-Aug-22 20:33N 38°12' E 015°37'1212.3
2016-Aug-22 19:34N 38°00' E 015°34'1312.9
2016-Aug-22 18:33N 37°48' E 015°30'1212.4
2016-Aug-22 17:33N 37°36' E 015°26'1313.0
2016-Aug-22 16:32N 37°23' E 015°21'6 0.1
2016-Aug-20 22:32N 37°17' E 015°19'1515.2
2016-Aug-20 21:33N 37°32' E 015°24'1515.5
2016-Aug-20 20:33N 37°47' E 015°28'1514.7
2016-Aug-20 19:33N 38°01' E 015°33'1313.5
2016-Aug-20 18:33N 38°14' E 015°36'1110.5
2016-Aug-20 17:33N 38°25' E 015°37'1414.4
2016-Aug-20 16:33N 38°38' E 015°29'1514.5
2016-Aug-20 15:33N 38°51' E 015°22'8814.5
2016-Aug-20 09:26N 40°08' E 014°25'2714.1
2016-Aug-20 07:32N 40°32' E 014°09'1313.7
2016-Aug-20 06:33N 40°44' E 014°15'6 5.9
2016-Aug-20 05:32N 40°50' E 014°18'0 0.0
2016-Aug-20 04:32N 40°50' E 014°18'0 0.0
2016-Aug-20 03:20N 40°50' E 014°18'0 0.0
2016-Aug-20 02:32N 40°50' E 014°18'0 0.0
2016-Aug-20 01:11N 40°50' E 014°18'0 0.0
2016-Aug-20 00:29N 40°50' E 014°18'0 0.0
2016-Aug-19 23:32N 40°50' E 014°18'0 0.0
2016-Aug-19 22:29N 40°50' E 014°18'0 0.0
2016-Aug-19 21:29N 40°50' E 014°18'0 0.0
2016-Aug-19 20:32N 40°50' E 014°18'0 0.0
2016-Aug-19 19:29N 40°50' E 014°18'0 0.0
2016-Aug-19 18:29N 40°50' E 014°18'0 0.0
2016-Aug-19 17:32N 40°50' E 014°18'0 0.0
2016-Aug-19 16:32N 40°50' E 014°18'0 0.0
2016-Aug-19 15:32N 40°50' E 014°18'0 0.0
2016-Aug-19 14:32N 40°50' E 014°18'0 0.0
2016-Aug-19 13:32N 40°50' E 014°18'0 0.0
2016-Aug-19 12:32N 40°50' E 014°18'0 0.0
2016-Aug-19 11:16N 40°50' E 014°18'0 0.0
2016-Aug-19 09:16N 40°50' E 014°18'0 0.0
2016-Aug-19 08:22N 40°50' E 014°18'0 0.0
2016-Aug-19 07:28N 40°50' E 014°18'0 0.1
2016-Aug-19 06:33N 40°50' E 014°17'  
Track history (hours):
 
Tides and Currents Weather Stations Pressure Air Temp Water Temp Dewpoint Dewpoint Depression Visibility Wind Speed Wind Dir Waves Ship Positions

Rina Amoretti

Last reported at 2016-Aug-29 06:31 UTC. Time now 2016-Aug-29 07:14 UTC.
Position N 38°06' E 013°26'.

Length 120 m; draft 7.4 m.

Type: Ship (hazmat cat A). MMSI: 247197000.

Date/timePositionNaut miles runAvg speedWind from/ knotsBaromVisibWave heightAir tempDewpointWater temp
2016-Aug-29 06:31N 38°06' E 013°26'0 0.1
2016-Aug-29 05:31N 38°06' E 013°26'1 0.9
2016-Aug-29 04:31N 38°07' E 013°26'0 0.0
2016-Aug-29 03:31N 38°07' E 013°26'0 0.0
2016-Aug-29 02:31N 38°07' E 013°26'0 0.1
2016-Aug-29 01:33N 38°07' E 013°26'1010.4
2016-Aug-29 00:33N 38°10' E 013°39'1212.4
2016-Aug-28 23:33N 38°11' E 013°55'1212.4
2016-Aug-28 22:33N 38°13' E 014°11'1412.4
2016-Aug-28 21:24N 38°14' E 014°29'1113.1
2016-Aug-28 20:33N 38°16' E 014°43'1413.7
2016-Aug-28 19:33N 38°17' E 015°00'1413.8
2016-Aug-28 18:33N 38°18' E 015°18'1313.4
2016-Aug-28 17:33N 38°20' E 015°34'6 6.2
2016-Aug-28 16:34N 38°14' E 015°37'1414.1
2016-Aug-28 15:33N 38°00' E 015°34'1413.5
2016-Aug-28 14:33N 37°47' E 015°29'1313.1
2016-Aug-28 13:32N 37°34' E 015°25'1412.9
2016-Aug-28 12:28N 37°21' E 015°21'9 0.4
2016-Aug-27 11:28N 37°12' E 015°17'1011.0
2016-Aug-27 10:33N 37°22' E 015°21'1413.7
2016-Aug-27 09:33N 37°35' E 015°24'1313.3
2016-Aug-27 08:33N 37°48' E 015°28'1313.1
2016-Aug-27 07:33N 38°01' E 015°33'1313.3
2016-Aug-27 06:33N 38°14' E 015°36'17 8.4
2016-Aug-27 04:33N 38°18' E 015°16'1313.2
2016-Aug-27 03:33N 38°17' E 014°59'1413.8
2016-Aug-27 02:33N 38°15' E 014°42'1413.6
2016-Aug-27 01:33N 38°14' E 014°24'1413.7
2016-Aug-27 00:33N 38°12' E 014°07'1313.3
2016-Aug-26 23:33N 38°11' E 013°50'1313.3
2016-Aug-26 22:33N 38°10' E 013°33'7 6.9
2016-Aug-26 21:33N 38°06' E 013°26'0 0.0
2016-Aug-26 20:33N 38°06' E 013°26'0 0.0
2016-Aug-26 19:33N 38°06' E 013°26'0 0.0
2016-Aug-26 18:33N 38°06' E 013°26'0 0.0
2016-Aug-26 17:33N 38°06' E 013°26'0 0.0
2016-Aug-26 16:33N 38°06' E 013°26'0 0.0
2016-Aug-26 15:33N 38°06' E 013°26'0 0.0
2016-Aug-26 14:33N 38°06' E 013°26'0 0.0
2016-Aug-26 13:33N 38°06' E 013°26'0 0.0
2016-Aug-26 12:33N 38°06' E 013°26'0 0.0
2016-Aug-26 11:33N 38°06' E 013°26'0 0.0
2016-Aug-26 10:33N 38°06' E 013°26'0 0.0
2016-Aug-26 09:33N 38°06' E 013°26'0 0.0
2016-Aug-26 08:33N 38°06' E 013°26'0 0.0
2016-Aug-26 07:33N 38°06' E 013°26'0 0.0
2016-Aug-26 06:33N 38°06' E 013°26'1 0.6
2016-Aug-26 04:31N 38°07' E 013°26'0 0.0
2016-Aug-26 03:31N 38°07' E 013°26'0 0.0
2016-Aug-26 02:31N 38°07' E 013°26'0 0.0
2016-Aug-26 01:31N 38°07' E 013°26'0 0.0
2016-Aug-26 00:31N 38°07' E 013°26'0 0.0
2016-Aug-25 23:31N 38°07' E 013°26'0 0.0
2016-Aug-25 22:28N 38°07' E 013°26'0 0.0
2016-Aug-25 21:31N 38°07' E 013°26'0 0.0
2016-Aug-25 20:31N 38°07' E 013°26'0 0.0
2016-Aug-25 19:31N 38°07' E 013°26'0 0.0
2016-Aug-25 18:31N 38°07' E 013°26'0 0.0
2016-Aug-25 17:31N 38°07' E 013°26'0 0.0
2016-Aug-25 16:31N 38°07' E 013°26'0 0.0
2016-Aug-25 15:31N 38°07' E 013°26'0 0.0
2016-Aug-25 14:31N 38°07' E 013°26'0 0.0
2016-Aug-25 13:31N 38°07' E 013°26'0 0.0
2016-Aug-25 12:31N 38°07' E 013°26'0 0.0
2016-Aug-25 11:31N 38°07' E 013°26'0 0.0
2016-Aug-25 10:31N 38°07' E 013°26'0 0.0
2016-Aug-25 09:31N 38°07' E 013°26'0 0.0
2016-Aug-25 08:31N 38°07' E 013°26'0 0.0
2016-Aug-25 07:31N 38°07' E 013°26'0 0.0
2016-Aug-25 06:31N 38°07' E 013°26'0 0.0
2016-Aug-25 04:31N 38°07' E 013°26'0 0.0
2016-Aug-25 03:34N 38°07' E 013°26'0 0.0
2016-Aug-25 02:34N 38°07' E 013°26'0 0.0
2016-Aug-25 01:33N 38°07' E 013°26'0 0.0
2016-Aug-25 00:33N 38°07' E 013°26'0 0.0
2016-Aug-24 23:33N 38°07' E 013°26'0 0.0
2016-Aug-24 22:33N 38°07' E 013°26'0 0.0
2016-Aug-24 21:33N 38°07' E 013°26'0 0.0
2016-Aug-24 20:33N 38°07' E 013°26'0 0.0
2016-Aug-24 19:33N 38°07' E 013°26'0 0.0
2016-Aug-24 18:33N 38°07' E 013°26'0 0.0
2016-Aug-24 17:33N 38°07' E 013°26'0 0.0
2016-Aug-24 16:33N 38°07' E 013°26'0 0.0
2016-Aug-24 15:33N 38°07' E 013°26'0 0.0
2016-Aug-24 14:33N 38°07' E 013°26'0 0.0
2016-Aug-24 13:27N 38°07' E 013°26'0 0.0
2016-Aug-24 12:33N 38°07' E 013°26'0 0.0
2016-Aug-24 11:33N 38°07' E 013°26'0 0.0
2016-Aug-24 10:33N 38°07' E 013°26'0 0.0
2016-Aug-24 09:33N 38°07' E 013°26'0 0.0
2016-Aug-24 08:33N 38°07' E 013°26'0 0.0
2016-Aug-24 07:33N 38°07' E 013°26'0 0.0
2016-Aug-24 06:33N 38°07' E 013°26'0 0.0
2016-Aug-24 04:33N 38°07' E 013°26'0 0.0
2016-Aug-24 03:33N 38°07' E 013°26'0 0.0
2016-Aug-24 02:33N 38°07' E 013°26'0 0.0
2016-Aug-24 01:33N 38°07' E 013°26'0 0.0
2016-Aug-24 00:33N 38°07' E 013°26'0 0.0
2016-Aug-23 23:33N 38°07' E 013°26'0 0.0
2016-Aug-23 22:33N 38°07' E 013°26'0 0.0
2016-Aug-23 21:33N 38°07' E 013°26'0 0.0
2016-Aug-23 20:33N 38°07' E 013°26'0 0.0
2016-Aug-23 19:33N 38°07' E 013°26'0 0.0
2016-Aug-23 18:33N 38°07' E 013°26'0 0.0
2016-Aug-23 17:33N 38°07' E 013°26'0 0.0
2016-Aug-23 16:33N 38°07' E 013°26'0 0.0
2016-Aug-23 15:33N 38°07' E 013°26'0 0.0
2016-Aug-23 14:30N 38°07' E 013°26'0 0.0
2016-Aug-23 13:33N 38°07' E 013°26'0 0.0
2016-Aug-23 12:33N 38°07' E 013°26'0 0.0
2016-Aug-23 11:33N 38°07' E 013°26'0 0.0
2016-Aug-23 10:32N 38°07' E 013°26'0 0.0
2016-Aug-23 09:32N 38°07' E 013°26'0 0.0
2016-Aug-23 08:32N 38°07' E 013°26'0 0.0
2016-Aug-23 07:32N 38°07' E 013°26'0 0.1
2016-Aug-23 06:29N 38°07' E 013°26'1 0.6
2016-Aug-23 05:34N 38°07' E 013°27'1010.1
2016-Aug-23 04:33N 38°10' E 013°39'1212.2
2016-Aug-23 03:33N 38°11' E 013°55'1212.4
2016-Aug-23 02:33N 38°13' E 014°11'1412.9
2016-Aug-23 01:30N 38°14' E 014°28'1313.2
2016-Aug-23 00:33N 38°15' E 014°44'1414.3
2016-Aug-22 23:33N 38°17' E 015°02'1413.8
2016-Aug-22 22:33N 38°19' E 015°19'1313.0
2016-Aug-22 21:34N 38°20' E 015°36'8 7.6
2016-Aug-22 20:33N 38°12' E 015°37'1212.3
2016-Aug-22 19:34N 38°00' E 015°34'1312.9
2016-Aug-22 18:33N 37°48' E 015°30'1212.4
2016-Aug-22 17:33N 37°36' E 015°26'1313.0
2016-Aug-22 16:32N 37°23' E 015°21'6 0.1
2016-Aug-20 22:32N 37°17' E 015°19'1515.2
2016-Aug-20 21:33N 37°32' E 015°24'1515.5
2016-Aug-20 20:33N 37°47' E 015°28'1514.7
2016-Aug-20 19:33N 38°01' E 015°33'1313.5
2016-Aug-20 18:33N 38°14' E 015°36'1110.5
2016-Aug-20 17:33N 38°25' E 015°37'1414.4
2016-Aug-20 16:33N 38°38' E 015°29'1514.5
2016-Aug-20 15:33N 38°51' E 015°22'8814.5
2016-Aug-20 09:26N 40°08' E 014°25'2714.1
2016-Aug-20 07:32N 40°32' E 014°09'1313.7
2016-Aug-20 06:33N 40°44' E 014°15'6 5.9
2016-Aug-20 05:32N 40°50' E 014°18'0 0.0
2016-Aug-20 04:32N 40°50' E 014°18'0 0.0
2016-Aug-20 03:20N 40°50' E 014°18'0 0.0
2016-Aug-20 02:32N 40°50' E 014°18'0 0.0
2016-Aug-20 01:11N 40°50' E 014°18'0 0.0
2016-Aug-20 00:29N 40°50' E 014°18'0 0.0
2016-Aug-19 23:32N 40°50' E 014°18'0 0.0
2016-Aug-19 22:29N 40°50' E 014°18'0 0.0
2016-Aug-19 21:29N 40°50' E 014°18'0 0.0
2016-Aug-19 20:32N 40°50' E 014°18'0 0.0
2016-Aug-19 19:29N 40°50' E 014°18'0 0.0
2016-Aug-19 18:29N 40°50' E 014°18'0 0.0
2016-Aug-19 17:32N 40°50' E 014°18'0 0.0
2016-Aug-19 16:32N 40°50' E 014°18'0 0.0
2016-Aug-19 15:32N 40°50' E 014°18'0 0.0
2016-Aug-19 14:32N 40°50' E 014°18'0 0.0
2016-Aug-19 13:32N 40°50' E 014°18'0 0.0
2016-Aug-19 12:32N 40°50' E 014°18'0 0.0
2016-Aug-19 11:16N 40°50' E 014°18'0 0.0
2016-Aug-19 09:16N 40°50' E 014°18'0 0.0
2016-Aug-19 08:22N 40°50' E 014°18'0 0.0
2016-Aug-19 07:28N 40°50' E 014°18'0 0.1
2016-Aug-19 06:33N 40°50' E 014°17'  

Dump ship's entire track history